sensor_id;sensor_type;location;lat;lon;timestamp;temperature;humidity
75363;DHT22;64122;51.988;5.892;2023-07-13T00:02:18;18.52;60.84
75363;DHT22;64122;51.988;5.892;2023-07-13T00:04:47;18.49;60.83
75363;DHT22;64122;51.988;5.892;2023-07-13T00:07:18;18.51;60.67
75363;DHT22;64122;51.988;5.892;2023-07-13T00:09:50;18.44;60.72
75363;DHT22;64122;51.988;5.892;2023-07-13T00:12:24;18.43;60.73
75363;DHT22;64122;51.988;5.892;2023-07-13T00:14:56;18.44;60.70
75363;DHT22;64122;51.988;5.892;2023-07-13T00:17:26;18.46;60.60
75363;DHT22;64122;51.988;5.892;2023-07-13T00:19:56;18.51;60.41
75363;DHT22;64122;51.988;5.892;2023-07-13T00:22:26;18.58;60.22
75363;DHT22;64122;51.988;5.892;2023-07-13T00:24:58;18.61;60.12
75363;DHT22;64122;51.988;5.892;2023-07-13T00:27:27;18.64;60.03
75363;DHT22;64122;51.988;5.892;2023-07-13T00:29:57;18.62;60.25
75363;DHT22;64122;51.988;5.892;2023-07-13T00:32:27;18.58;60.38
75363;DHT22;64122;51.988;5.892;2023-07-13T00:34:57;18.55;60.60
75363;DHT22;64122;51.988;5.892;2023-07-13T00:37:27;18.52;60.95
75363;DHT22;64122;51.988;5.892;2023-07-13T00:40:00;18.49;60.93
75363;DHT22;64122;51.988;5.892;2023-07-13T00:42:29;18.48;61.00
75363;DHT22;64122;51.988;5.892;2023-07-13T00:46:02;18.44;61.01
75363;DHT22;64122;51.988;5.892;2023-07-13T00:47:56;18.40;61.26
75363;DHT22;64122;51.988;5.892;2023-07-13T00:50:26;18.37;61.10
75363;DHT22;64122;51.988;5.892;2023-07-13T00:52:56;18.37;60.98
75363;DHT22;64122;51.988;5.892;2023-07-13T00:55:29;18.33;60.91
75363;DHT22;64122;51.988;5.892;2023-07-13T00:57:58;18.29;60.90
75363;DHT22;64122;51.988;5.892;2023-07-13T01:00:29;18.23;61.06
75363;DHT22;64122;51.988;5.892;2023-07-13T01:02:59;18.25;61.23
75363;DHT22;64122;51.988;5.892;2023-07-13T01:05:32;18.23;61.22
75363;DHT22;64122;51.988;5.892;2023-07-13T01:08:03;18.24;61.38
75363;DHT22;64122;51.988;5.892;2023-07-13T01:10:36;18.21;61.41
75363;DHT22;64122;51.988;5.892;2023-07-13T01:13:09;18.19;61.37
75363;DHT22;64122;51.988;5.892;2023-07-13T01:15:40;18.15;61.35
75363;DHT22;64122;51.988;5.892;2023-07-13T01:18:14;18.10;61.44
75363;DHT22;64122;51.988;5.892;2023-07-13T01:20:54;18.03;61.42
75363;DHT22;64122;51.988;5.892;2023-07-13T01:23:24;18.00;61.57
75363;DHT22;64122;51.988;5.892;2023-07-13T01:25:55;17.99;61.52
75363;DHT22;64122;51.988;5.892;2023-07-13T01:28:26;17.94;61.54
75363;DHT22;64122;51.988;5.892;2023-07-13T01:30:57;17.91;61.74
75363;DHT22;64122;51.988;5.892;2023-07-13T01:33:27;17.90;61.79
75363;DHT22;64122;51.988;5.892;2023-07-13T01:35:59;17.89;61.74
75363;DHT22;64122;51.988;5.892;2023-07-13T01:38:28;17.90;61.72
75363;DHT22;64122;51.988;5.892;2023-07-13T01:40:58;17.84;61.78
75363;DHT22;64122;51.988;5.892;2023-07-13T01:43:27;17.82;61.79
75363;DHT22;64122;51.988;5.892;2023-07-13T01:45:56;17.83;61.86
75363;DHT22;64122;51.988;5.892;2023-07-13T01:48:25;17.89;61.79
75363;DHT22;64122;51.988;5.892;2023-07-13T01:50:55;17.95;61.75
75363;DHT22;64122;51.988;5.892;2023-07-13T01:53:26;17.94;61.76
75363;DHT22;64122;51.988;5.892;2023-07-13T01:55:55;17.94;61.70
75363;DHT22;64122;51.988;5.892;2023-07-13T01:58:25;17.89;61.79
75363;DHT22;64122;51.988;5.892;2023-07-13T02:00:54;17.87;62.05
75363;DHT22;64122;51.988;5.892;2023-07-13T02:03:23;17.85;62.03
75363;DHT22;64122;51.988;5.892;2023-07-13T02:05:52;17.81;62.07
75363;DHT22;64122;51.988;5.892;2023-07-13T02:08:21;17.79;62.16
75363;DHT22;64122;51.988;5.892;2023-07-13T02:10:53;17.73;62.15
75363;DHT22;64122;51.988;5.892;2023-07-13T02:13:22;17.67;62.55
75363;DHT22;64122;51.988;5.892;2023-07-13T02:15:52;17.66;62.63
75363;DHT22;64122;51.988;5.892;2023-07-13T02:18:21;17.65;62.83
75363;DHT22;64122;51.988;5.892;2023-07-13T02:20:50;17.66;62.79
75363;DHT22;64122;51.988;5.892;2023-07-13T02:23:20;17.66;62.99
75363;DHT22;64122;51.988;5.892;2023-07-13T02:25:49;17.64;63.12
75363;DHT22;64122;51.988;5.892;2023-07-13T02:28:21;17.61;63.26
75363;DHT22;64122;51.988;5.892;2023-07-13T02:30:50;17.61;63.32
75363;DHT22;64122;51.988;5.892;2023-07-13T02:33:19;17.61;63.44
75363;DHT22;64122;51.988;5.892;2023-07-13T02:35:49;17.58;63.66
75363;DHT22;64122;51.988;5.892;2023-07-13T02:38:18;17.58;63.63
75363;DHT22;64122;51.988;5.892;2023-07-13T02:40:47;17.56;63.66
75363;DHT22;64122;51.988;5.892;2023-07-13T02:43:22;17.54;63.75
75363;DHT22;64122;51.988;5.892;2023-07-13T02:45:51;17.53;63.78
75363;DHT22;64122;51.988;5.892;2023-07-13T02:48:20;17.51;63.92
75363;DHT22;64122;51.988;5.892;2023-07-13T02:50:50;17.50;64.03
75363;DHT22;64122;51.988;5.892;2023-07-13T02:53:20;17.45;64.29
75363;DHT22;64122;51.988;5.892;2023-07-13T02:55:49;17.45;64.30
75363;DHT22;64122;51.988;5.892;2023-07-13T02:58:18;17.41;64.40
75363;DHT22;64122;51.988;5.892;2023-07-13T03:00:50;17.40;64.26
75363;DHT22;64122;51.988;5.892;2023-07-13T03:03:19;17.41;64.32
75363;DHT22;64122;51.988;5.892;2023-07-13T03:05:58;17.35;64.26
75363;DHT22;64122;51.988;5.892;2023-07-13T03:08:33;17.34;64.45
75363;DHT22;64122;51.988;5.892;2023-07-13T03:11:05;17.29;64.56
75363;DHT22;64122;51.988;5.892;2023-07-13T03:13:37;17.24;64.80
75363;DHT22;64122;51.988;5.892;2023-07-13T03:16:10;17.21;64.82
75363;DHT22;64122;51.988;5.892;2023-07-13T03:18:42;17.18;65.01
75363;DHT22;64122;51.988;5.892;2023-07-13T03:21:12;17.19;65.03
75363;DHT22;64122;51.988;5.892;2023-07-13T03:23:41;17.19;65.22
75363;DHT22;64122;51.988;5.892;2023-07-13T03:26:13;17.18;65.22
75363;DHT22;64122;51.988;5.892;2023-07-13T03:28:43;17.18;65.31
75363;DHT22;64122;51.988;5.892;2023-07-13T03:31:21;17.15;65.56
75363;DHT22;64122;51.988;5.892;2023-07-13T03:33:51;17.15;65.62
75363;DHT22;64122;51.988;5.892;2023-07-13T03:36:22;17.14;65.86
75363;DHT22;64122;51.988;5.892;2023-07-13T03:38:56;17.13;65.80
75363;DHT22;64122;51.988;5.892;2023-07-13T03:41:33;17.11;65.95
75363;DHT22;64122;51.988;5.892;2023-07-13T03:44:03;17.11;65.88
75363;DHT22;64122;51.988;5.892;2023-07-13T03:46:35;17.04;66.03
75363;DHT22;64122;51.988;5.892;2023-07-13T03:49:05;17.05;66.11
75363;DHT22;64122;51.988;5.892;2023-07-13T03:51:34;17.07;66.17
75363;DHT22;64122;51.988;5.892;2023-07-13T03:54:04;17.07;66.04
75363;DHT22;64122;51.988;5.892;2023-07-13T03:56:34;17.04;66.14
75363;DHT22;64122;51.988;5.892;2023-07-13T03:59:04;17.04;66.20
75363;DHT22;64122;51.988;5.892;2023-07-13T04:01:36;17.06;66.25
75363;DHT22;64122;51.988;5.892;2023-07-13T04:04:05;17.08;66.37
75363;DHT22;64122;51.988;5.892;2023-07-13T04:06:34;17.13;66.41
75363;DHT22;64122;51.988;5.892;2023-07-13T04:09:04;17.13;66.30
75363;DHT22;64122;51.988;5.892;2023-07-13T04:11:36;17.15;66.30
75363;DHT22;64122;51.988;5.892;2023-07-13T04:14:06;17.16;66.38
75363;DHT22;64122;51.988;5.892;2023-07-13T04:16:38;17.16;66.38
75363;DHT22;64122;51.988;5.892;2023-07-13T04:19:08;17.20;66.44
75363;DHT22;64122;51.988;5.892;2023-07-13T04:21:37;17.24;66.43
75363;DHT22;64122;51.988;5.892;2023-07-13T04:24:06;17.30;66.29
75363;DHT22;64122;51.988;5.892;2023-07-13T04:26:35;17.33;66.30
75363;DHT22;64122;51.988;5.892;2023-07-13T04:29:05;17.40;66.17
75363;DHT22;64122;51.988;5.892;2023-07-13T04:31:34;17.48;66.03
75363;DHT22;64122;51.988;5.892;2023-07-13T04:34:06;17.55;65.88
75363;DHT22;64122;51.988;5.892;2023-07-13T04:36:35;17.63;65.72
75363;DHT22;64122;51.988;5.892;2023-07-13T04:39:05;17.73;65.59
75363;DHT22;64122;51.988;5.892;2023-07-13T04:41:35;17.78;65.52
75363;DHT22;64122;51.988;5.892;2023-07-13T04:44:04;17.85;65.36
75363;DHT22;64122;51.988;5.892;2023-07-13T04:46:33;17.93;65.27
75363;DHT22;64122;51.988;5.892;2023-07-13T04:49:06;17.93;65.14
75363;DHT22;64122;51.988;5.892;2023-07-13T04:51:35;17.94;65.19
75363;DHT22;64122;51.988;5.892;2023-07-13T04:54:04;18.06;65.01
75363;DHT22;64122;51.988;5.892;2023-07-13T04:56:34;18.11;64.89
75363;DHT22;64122;51.988;5.892;2023-07-13T04:59:03;18.14;64.83
75363;DHT22;64122;51.988;5.892;2023-07-13T05:01:32;18.25;64.66
75363;DHT22;64122;51.988;5.892;2023-07-13T05:04:01;18.33;64.45
75363;DHT22;64122;51.988;5.892;2023-07-13T05:06:33;18.36;64.50
75363;DHT22;64122;51.988;5.892;2023-07-13T05:09:02;18.46;64.53
75363;DHT22;64122;51.988;5.892;2023-07-13T05:11:33;18.50;64.27
75363;DHT22;64122;51.988;5.892;2023-07-13T05:14:02;18.56;64.21
75363;DHT22;64122;51.988;5.892;2023-07-13T05:16:31;18.63;64.27
75363;DHT22;64122;51.988;5.892;2023-07-13T05:19:01;18.65;64.01
75363;DHT22;64122;51.988;5.892;2023-07-13T05:21:33;18.63;64.14
75363;DHT22;64122;51.988;5.892;2023-07-13T05:24:02;18.64;64.24
75363;DHT22;64122;51.988;5.892;2023-07-13T05:26:31;18.64;64.40
75363;DHT22;64122;51.988;5.892;2023-07-13T05:29:00;18.69;64.13
75363;DHT22;64122;51.988;5.892;2023-07-13T05:31:29;18.71;64.21
75363;DHT22;64122;51.988;5.892;2023-07-13T05:33:59;18.69;64.19
75363;DHT22;64122;51.988;5.892;2023-07-13T05:36:28;18.68;64.14
75363;DHT22;64122;51.988;5.892;2023-07-13T05:39:00;18.69;64.23
75363;DHT22;64122;51.988;5.892;2023-07-13T05:41:29;18.70;64.34
75363;DHT22;64122;51.988;5.892;2023-07-13T05:44:01;18.72;64.52
75363;DHT22;64122;51.988;5.892;2023-07-13T05:46:31;18.69;64.41
75363;DHT22;64122;51.988;5.892;2023-07-13T05:49:00;18.87;64.25
75363;DHT22;64122;51.988;5.892;2023-07-13T05:51:29;18.97;64.03
75363;DHT22;64122;51.988;5.892;2023-07-13T05:54:01;19.01;63.97
75363;DHT22;64122;51.988;5.892;2023-07-13T05:56:30;19.06;63.86
75363;DHT22;64122;51.988;5.892;2023-07-13T05:58:59;19.06;63.87
75363;DHT22;64122;51.988;5.892;2023-07-13T06:01:30;18.97;64.12
75363;DHT22;64122;51.988;5.892;2023-07-13T06:03:59;19.03;64.44
75363;DHT22;64122;51.988;5.892;2023-07-13T06:06:29;19.09;64.30
75363;DHT22;64122;51.988;5.892;2023-07-13T06:09:00;19.13;64.31
75363;DHT22;64122;51.988;5.892;2023-07-13T06:11:30;19.20;64.26
75363;DHT22;64122;51.988;5.892;2023-07-13T06:13:59;19.26;64.18
75363;DHT22;64122;51.988;5.892;2023-07-13T06:16:30;19.32;64.14
75363;DHT22;64122;51.988;5.892;2023-07-13T06:18:59;19.43;63.92
75363;DHT22;64122;51.988;5.892;2023-07-13T06:21:28;19.52;63.82
75363;DHT22;64122;51.988;5.892;2023-07-13T06:23:57;19.57;63.69
75363;DHT22;64122;51.988;5.892;2023-07-13T06:26:29;19.58;63.73
75363;DHT22;64122;51.988;5.892;2023-07-13T06:28:58;19.61;63.70
75363;DHT22;64122;51.988;5.892;2023-07-13T06:31:27;19.68;63.49
75363;DHT22;64122;51.988;5.892;2023-07-13T06:33:57;19.75;63.53
75363;DHT22;64122;51.988;5.892;2023-07-13T06:36:26;19.95;63.38
75363;DHT22;64122;51.988;5.892;2023-07-13T06:38:55;20.09;63.02
75363;DHT22;64122;51.988;5.892;2023-07-13T06:41:25;20.19;62.78
75363;DHT22;64122;51.988;5.892;2023-07-13T06:43:56;20.31;62.63
75363;DHT22;64122;51.988;5.892;2023-07-13T06:46:26;20.49;62.14
75363;DHT22;64122;51.988;5.892;2023-07-13T06:48:57;20.50;61.90
75363;DHT22;64122;51.988;5.892;2023-07-13T06:51:26;20.31;62.48
75363;DHT22;64122;51.988;5.892;2023-07-13T06:53:55;20.32;62.64
75363;DHT22;64122;51.988;5.892;2023-07-13T06:56:25;20.54;62.12
75363;DHT22;64122;51.988;5.892;2023-07-13T06:58:56;20.69;61.85
75363;DHT22;64122;51.988;5.892;2023-07-13T07:01:26;20.77;61.57
75363;DHT22;64122;51.988;5.892;2023-07-13T07:03:55;20.83;61.54
75363;DHT22;64122;51.988;5.892;2023-07-13T07:06:24;20.88;61.30
75363;DHT22;64122;51.988;5.892;2023-07-13T07:08:54;20.90;61.16
75363;DHT22;64122;51.988;5.892;2023-07-13T07:11:24;21.00;61.16
75363;DHT22;64122;51.988;5.892;2023-07-13T07:13:56;21.17;60.93
75363;DHT22;64122;51.988;5.892;2023-07-13T07:16:25;21.32;60.65
75363;DHT22;64122;51.988;5.892;2023-07-13T07:18:55;21.43;60.06
75363;DHT22;64122;51.988;5.892;2023-07-13T07:21:24;21.46;59.87
75363;DHT22;64122;51.988;5.892;2023-07-13T07:23:53;21.49;60.00
75363;DHT22;64122;51.988;5.892;2023-07-13T07:26:22;21.55;59.56
75363;DHT22;64122;51.988;5.892;2023-07-13T07:28:51;21.49;59.71
75363;DHT22;64122;51.988;5.892;2023-07-13T07:31:23;21.49;59.75
75363;DHT22;64122;51.988;5.892;2023-07-13T07:33:53;21.52;59.48
75363;DHT22;64122;51.988;5.892;2023-07-13T07:36:22;21.52;59.27
75363;DHT22;64122;51.988;5.892;2023-07-13T07:38:51;21.57;59.29
75363;DHT22;64122;51.988;5.892;2023-07-13T07:41:20;21.62;59.22
75363;DHT22;64122;51.988;5.892;2023-07-13T07:43:50;21.84;58.80
75363;DHT22;64122;51.988;5.892;2023-07-13T07:46:19;22.09;58.10
75363;DHT22;64122;51.988;5.892;2023-07-13T07:48:51;22.22;57.94
75363;DHT22;64122;51.988;5.892;2023-07-13T07:51:20;22.27;57.78
75363;DHT22;64122;51.988;5.892;2023-07-13T07:53:49;22.21;57.66
75363;DHT22;64122;51.988;5.892;2023-07-13T07:56:19;22.09;57.96
75363;DHT22;64122;51.988;5.892;2023-07-13T07:58:48;21.94;58.31
75363;DHT22;64122;51.988;5.892;2023-07-13T08:01:17;21.87;58.60
75363;DHT22;64122;51.988;5.892;2023-07-13T08:03:47;22.12;57.88
75363;DHT22;64122;51.988;5.892;2023-07-13T08:06:19;22.50;56.93
75363;DHT22;64122;51.988;5.892;2023-07-13T08:08:49;23.00;55.74
75363;DHT22;64122;51.988;5.892;2023-07-13T08:11:18;23.69;54.04
75363;DHT22;64122;51.988;5.892;2023-07-13T08:13:47;24.41;51.98
75363;DHT22;64122;51.988;5.892;2023-07-13T08:16:16;25.74;48.95
75363;DHT22;64122;51.988;5.892;2023-07-13T08:18:46;26.75;46.76
75363;DHT22;64122;51.988;5.892;2023-07-13T08:21:17;26.52;47.05
75363;DHT22;64122;51.988;5.892;2023-07-13T08:23:48;26.46;47.24
75363;DHT22;64122;51.988;5.892;2023-07-13T08:26:17;26.80;46.25
75363;DHT22;64122;51.988;5.892;2023-07-13T08:28:46;28.27;43.07
75363;DHT22;64122;51.988;5.892;2023-07-13T08:31:15;29.78;40.13
75363;DHT22;64122;51.988;5.892;2023-07-13T08:33:44;30.08;39.38
75363;DHT22;64122;51.988;5.892;2023-07-13T08:36:13;29.60;39.85
75363;DHT22;64122;51.988;5.892;2023-07-13T08:38:45;28.97;40.75
75363;DHT22;64122;51.988;5.892;2023-07-13T08:41:17;28.79;40.94
75363;DHT22;64122;51.988;5.892;2023-07-13T08:43:47;28.80;42.63
75363;DHT22;64122;51.988;5.892;2023-07-13T08:46:19;30.31;38.33
75363;DHT22;64122;51.988;5.892;2023-07-13T08:48:52;29.49;39.18
75363;DHT22;64122;51.988;5.892;2023-07-13T08:51:35;27.99;42.00
75363;DHT22;64122;51.988;5.892;2023-07-13T08:54:16;26.61;44.67
75363;DHT22;64122;51.988;5.892;2023-07-13T08:56:47;25.60;46.72
75363;DHT22;64122;51.988;5.892;2023-07-13T08:59:21;24.97;48.17
75363;DHT22;64122;51.988;5.892;2023-07-13T09:02:14;24.61;48.65
75363;DHT22;64122;51.988;5.892;2023-07-13T09:04:49;25.86;46.05
75363;DHT22;64122;51.988;5.892;2023-07-13T09:07:27;27.66;41.52
75363;DHT22;64122;51.988;5.892;2023-07-13T09:10:12;29.00;39.09
75363;DHT22;64122;51.988;5.892;2023-07-13T09:12:54;29.88;37.71
75363;DHT22;64122;51.988;5.892;2023-07-13T09:15:29;30.05;36.38
75363;DHT22;64122;51.988;5.892;2023-07-13T09:18:03;29.78;35.82
75363;DHT22;64122;51.988;5.892;2023-07-13T09:20:35;29.64;36.27
75363;DHT22;64122;51.988;5.892;2023-07-13T09:23:11;29.56;36.30
75363;DHT22;64122;51.988;5.892;2023-07-13T09:25:45;29.01;36.78
75363;DHT22;64122;51.988;5.892;2023-07-13T09:28:19;28.24;38.23
75363;DHT22;64122;51.988;5.892;2023-07-13T09:30:52;27.34;40.09
75363;DHT22;64122;51.988;5.892;2023-07-13T09:33:23;26.60;41.76
75363;DHT22;64122;51.988;5.892;2023-07-13T09:35:55;25.77;46.61
75363;DHT22;64122;51.988;5.892;2023-07-13T09:38:26;24.95;48.78
75363;DHT22;64122;51.988;5.892;2023-07-13T09:41:11;24.26;49.55
75363;DHT22;64122;51.988;5.892;2023-07-13T09:44:01;23.73;50.75
75363;DHT22;64122;51.988;5.892;2023-07-13T09:46:30;23.84;51.00
75363;DHT22;64122;51.988;5.892;2023-07-13T09:48:59;23.82;50.34
75363;DHT22;64122;51.988;5.892;2023-07-13T09:51:28;23.94;51.08
75363;DHT22;64122;51.988;5.892;2023-07-13T09:53:58;24.41;50.69
75363;DHT22;64122;51.988;5.892;2023-07-13T09:56:31;24.69;50.27
75363;DHT22;64122;51.988;5.892;2023-07-13T09:59:00;24.78;49.98
75363;DHT22;64122;51.988;5.892;2023-07-13T10:01:35;24.55;50.52
75363;DHT22;64122;51.988;5.892;2023-07-13T10:04:11;24.19;51.91
75363;DHT22;64122;51.988;5.892;2023-07-13T10:06:41;24.02;52.21
75363;DHT22;64122;51.988;5.892;2023-07-13T10:09:15;24.46;52.06
75363;DHT22;64122;51.988;5.892;2023-07-13T10:11:50;25.19;50.21
75363;DHT22;64122;51.988;5.892;2023-07-13T10:14:21;26.07;47.70
75363;DHT22;64122;51.988;5.892;2023-07-13T10:16:57;26.73;46.93
75363;DHT22;64122;51.988;5.892;2023-07-13T10:19:32;27.13;45.33
75363;DHT22;64122;51.988;5.892;2023-07-13T10:22:12;27.38;45.03
75363;DHT22;64122;51.988;5.892;2023-07-13T10:24:43;27.50;43.99
75363;DHT22;64122;51.988;5.892;2023-07-13T10:27:18;27.55;44.64
75363;DHT22;64122;51.988;5.892;2023-07-13T10:30:06;27.60;43.44
75363;DHT22;64122;51.988;5.892;2023-07-13T10:32:38;27.42;43.83
75363;DHT22;64122;51.988;5.892;2023-07-13T10:35:09;26.89;44.24
75363;DHT22;64122;51.988;5.892;2023-07-13T10:37:45;26.27;44.64
75363;DHT22;64122;51.988;5.892;2023-07-13T10:40:22;26.01;44.93
75363;DHT22;64122;51.988;5.892;2023-07-13T10:42:57;25.80;45.27
75363;DHT22;64122;51.988;5.892;2023-07-13T10:45:34;25.35;45.97
75363;DHT22;64122;51.988;5.892;2023-07-13T10:48:05;24.76;48.20
75363;DHT22;64122;51.988;5.892;2023-07-13T10:50:38;24.25;51.40
75363;DHT22;64122;51.988;5.892;2023-07-13T10:53:19;23.76;52.81
75363;DHT22;64122;51.988;5.892;2023-07-13T10:56:00;24.00;55.14
75363;DHT22;64122;51.988;5.892;2023-07-13T10:58:36;24.43;54.33
75363;DHT22;64122;51.988;5.892;2023-07-13T11:01:09;24.72;56.10
75363;DHT22;64122;51.988;5.892;2023-07-13T11:03:49;24.92;55.16
75363;DHT22;64122;51.988;5.892;2023-07-13T11:06:33;25.32;53.46
75363;DHT22;64122;51.988;5.892;2023-07-13T11:09:19;25.63;53.58
75363;DHT22;64122;51.988;5.892;2023-07-13T11:11:48;25.89;52.50
75363;DHT22;64122;51.988;5.892;2023-07-13T11:14:34;26.06;52.64
75363;DHT22;64122;51.988;5.892;2023-07-13T11:17:32;26.10;51.41
75363;DHT22;64122;51.988;5.892;2023-07-13T11:20:30;25.76;50.96
75363;DHT22;64122;51.988;5.892;2023-07-13T11:23:18;25.25;49.56
75363;DHT22;64122;51.988;5.892;2023-07-13T11:25:48;24.98;49.44
75363;DHT22;64122;51.988;5.892;2023-07-13T11:28:23;24.76;49.71
75363;DHT22;64122;51.988;5.892;2023-07-13T11:31:13;24.71;49.99
75363;DHT22;64122;51.988;5.892;2023-07-13T11:33:58;24.90;50.07
75363;DHT22;64122;51.988;5.892;2023-07-13T11:36:31;25.37;48.08
75363;DHT22;64122;51.988;5.892;2023-07-13T11:39:13;25.75;45.77
75363;DHT22;64122;51.988;5.892;2023-07-13T11:41:50;26.04;46.21
75363;DHT22;64122;51.988;5.892;2023-07-13T11:44:23;26.28;43.60
75363;DHT22;64122;51.988;5.892;2023-07-13T11:46:57;26.30;42.61
75363;DHT22;64122;51.988;5.892;2023-07-13T11:49:30;26.10;42.73
75363;DHT22;64122;51.988;5.892;2023-07-13T11:52:00;26.21;43.05
75363;DHT22;64122;51.988;5.892;2023-07-13T11:54:32;26.28;43.10
75363;DHT22;64122;51.988;5.892;2023-07-13T11:57:06;26.02;43.48
75363;DHT22;64122;51.988;5.892;2023-07-13T11:59:40;25.88;44.30
75363;DHT22;64122;51.988;5.892;2023-07-13T12:02:16;25.66;44.45
75363;DHT22;64122;51.988;5.892;2023-07-13T12:04:45;25.49;44.67
75363;DHT22;64122;51.988;5.892;2023-07-13T12:07:17;25.21;44.84
75363;DHT22;64122;51.988;5.892;2023-07-13T12:09:47;24.90;45.93
75363;DHT22;64122;51.988;5.892;2023-07-13T12:12:18;24.68;46.84
75363;DHT22;64122;51.988;5.892;2023-07-13T12:14:51;24.65;47.74
75363;DHT22;64122;51.988;5.892;2023-07-13T12:17:24;24.88;46.96
75363;DHT22;64122;51.988;5.892;2023-07-13T12:19:54;25.17;46.72
75363;DHT22;64122;51.988;5.892;2023-07-13T12:22:23;25.51;46.69
75363;DHT22;64122;51.988;5.892;2023-07-13T12:24:53;25.77;46.38
75363;DHT22;64122;51.988;5.892;2023-07-13T12:27:24;25.98;45.24
75363;DHT22;64122;51.988;5.892;2023-07-13T12:29:59;25.99;44.25
75363;DHT22;64122;51.988;5.892;2023-07-13T12:32:31;26.06;44.96
75363;DHT22;64122;51.988;5.892;2023-07-13T12:35:14;26.07;45.48
75363;DHT22;64122;51.988;5.892;2023-07-13T12:37:46;26.15;44.98
75363;DHT22;64122;51.988;5.892;2023-07-13T12:40:17;26.05;45.12
75363;DHT22;64122;51.988;5.892;2023-07-13T12:42:49;25.88;44.39
75363;DHT22;64122;51.988;5.892;2023-07-13T12:45:22;25.63;44.16
75363;DHT22;64122;51.988;5.892;2023-07-13T12:47:57;25.38;44.32
75363;DHT22;64122;51.988;5.892;2023-07-13T12:50:30;25.19;44.42
75363;DHT22;64122;51.988;5.892;2023-07-13T12:53:04;24.99;44.99
75363;DHT22;64122;51.988;5.892;2023-07-13T12:55:42;24.78;45.06
75363;DHT22;64122;51.988;5.892;2023-07-13T12:58:18;24.55;45.21
75363;DHT22;64122;51.988;5.892;2023-07-13T13:00:50;24.45;45.46
75363;DHT22;64122;51.988;5.892;2023-07-13T13:03:26;24.42;45.53
75363;DHT22;64122;51.988;5.892;2023-07-13T13:06:01;24.42;45.54
75363;DHT22;64122;51.988;5.892;2023-07-13T13:08:32;24.47;45.93
75363;DHT22;64122;51.988;5.892;2023-07-13T13:11:02;24.87;45.47
75363;DHT22;64122;51.988;5.892;2023-07-13T13:13:31;25.10;45.41
75363;DHT22;64122;51.988;5.892;2023-07-13T13:16:02;25.33;45.09
75363;DHT22;64122;51.988;5.892;2023-07-13T13:18:34;25.33;45.13
75363;DHT22;64122;51.988;5.892;2023-07-13T13:21:04;25.37;45.12
75363;DHT22;64122;51.988;5.892;2023-07-13T13:23:35;25.47;45.07
75363;DHT22;64122;51.988;5.892;2023-07-13T13:26:10;25.73;44.37
75363;DHT22;64122;51.988;5.892;2023-07-13T13:28:39;25.87;42.07
75363;DHT22;64122;51.988;5.892;2023-07-13T13:31:10;26.15;41.27
75363;DHT22;64122;51.988;5.892;2023-07-13T13:33:44;26.20;41.68
75363;DHT22;64122;51.988;5.892;2023-07-13T13:36:15;26.06;43.15
75363;DHT22;64122;51.988;5.892;2023-07-13T13:38:47;26.08;43.80
75363;DHT22;64122;51.988;5.892;2023-07-13T13:41:17;26.23;43.99
75363;DHT22;64122;51.988;5.892;2023-07-13T13:43:46;26.40;43.51
75363;DHT22;64122;51.988;5.892;2023-07-13T13:46:18;26.30;44.37
75363;DHT22;64122;51.988;5.892;2023-07-13T13:48:51;26.27;41.60
75363;DHT22;64122;51.988;5.892;2023-07-13T13:51:23;26.34;40.47
75363;DHT22;64122;51.988;5.892;2023-07-13T13:53:52;26.23;39.75
75363;DHT22;64122;51.988;5.892;2023-07-13T13:56:22;26.25;39.36
75363;DHT22;64122;51.988;5.892;2023-07-13T13:58:51;26.36;38.99
75363;DHT22;64122;51.988;5.892;2023-07-13T14:01:21;26.45;38.81
75363;DHT22;64122;51.988;5.892;2023-07-13T14:03:54;26.52;38.86
75363;DHT22;64122;51.988;5.892;2023-07-13T14:06:25;26.54;38.69
75363;DHT22;64122;51.988;5.892;2023-07-13T14:08:54;26.65;38.98
75363;DHT22;64122;51.988;5.892;2023-07-13T14:11:24;26.62;38.14
75363;DHT22;64122;51.988;5.892;2023-07-13T14:13:56;26.42;38.03
75363;DHT22;64122;51.988;5.892;2023-07-13T14:16:28;26.26;38.81
75363;DHT22;64122;51.988;5.892;2023-07-13T14:19:01;26.38;39.01
75363;DHT22;64122;51.988;5.892;2023-07-13T14:21:30;26.57;38.64
75363;DHT22;64122;51.988;5.892;2023-07-13T14:23:59;26.53;38.62
75363;DHT22;64122;51.988;5.892;2023-07-13T14:26:34;26.46;38.69
75363;DHT22;64122;51.988;5.892;2023-07-13T14:29:10;26.43;38.52
75363;DHT22;64122;51.988;5.892;2023-07-13T14:31:41;26.48;38.98
75363;DHT22;64122;51.988;5.892;2023-07-13T14:34:13;26.42;38.96
75363;DHT22;64122;51.988;5.892;2023-07-13T14:36:44;26.22;39.15
75363;DHT22;64122;51.988;5.892;2023-07-13T14:39:15;26.05;39.12
75363;DHT22;64122;51.988;5.892;2023-07-13T14:41:45;25.93;39.02
75363;DHT22;64122;51.988;5.892;2023-07-13T14:44:16;25.97;39.46
75363;DHT22;64122;51.988;5.892;2023-07-13T14:46:46;26.16;38.56
75363;DHT22;64122;51.988;5.892;2023-07-13T14:49:23;26.28;38.12
75363;DHT22;64122;51.988;5.892;2023-07-13T14:51:54;26.26;37.86
75363;DHT22;64122;51.988;5.892;2023-07-13T14:54:24;26.18;38.00
75363;DHT22;64122;51.988;5.892;2023-07-13T14:56:54;26.13;38.16
75363;DHT22;64122;51.988;5.892;2023-07-13T14:59:23;26.09;38.43
75363;DHT22;64122;51.988;5.892;2023-07-13T15:01:52;26.05;38.60
75363;DHT22;64122;51.988;5.892;2023-07-13T15:04:24;25.98;38.66
75363;DHT22;64122;51.988;5.892;2023-07-13T15:06:55;25.94;39.03
75363;DHT22;64122;51.988;5.892;2023-07-13T15:09:25;25.82;38.88
75363;DHT22;64122;51.988;5.892;2023-07-13T15:11:56;25.80;39.26
75363;DHT22;64122;51.988;5.892;2023-07-13T15:14:25;25.86;39.01
75363;DHT22;64122;51.988;5.892;2023-07-13T15:16:56;25.80;39.17
75363;DHT22;64122;51.988;5.892;2023-07-13T15:19:28;25.75;39.14
75363;DHT22;64122;51.988;5.892;2023-07-13T15:21:58;25.69;39.14
75363;DHT22;64122;51.988;5.892;2023-07-13T15:24:28;25.58;39.52
75363;DHT22;64122;51.988;5.892;2023-07-13T15:26:58;25.49;39.98
75363;DHT22;64122;51.988;5.892;2023-07-13T15:29:27;25.44;40.12
75363;DHT22;64122;51.988;5.892;2023-07-13T15:31:56;25.43;40.27
75363;DHT22;64122;51.988;5.892;2023-07-13T15:34:28;25.37;40.47
75363;DHT22;64122;51.988;5.892;2023-07-13T15:36:57;25.25;40.71
75363;DHT22;64122;51.988;5.892;2023-07-13T15:39:27;25.17;40.92
75363;DHT22;64122;51.988;5.892;2023-07-13T15:41:57;25.13;41.13
75363;DHT22;64122;51.988;5.892;2023-07-13T15:44:28;25.08;41.25
75363;DHT22;64122;51.988;5.892;2023-07-13T15:47:00;25.05;41.28
75363;DHT22;64122;51.988;5.892;2023-07-13T15:49:32;24.98;40.94
75363;DHT22;64122;51.988;5.892;2023-07-13T15:52:01;24.76;41.51
75363;DHT22;64122;51.988;5.892;2023-07-13T15:54:30;24.87;41.80
75363;DHT22;64122;51.988;5.892;2023-07-13T15:57:01;24.93;41.55
75363;DHT22;64122;51.988;5.892;2023-07-13T15:59:32;25.01;41.41